createdAt,value
2022-09-11T00:02:31.512Z,14.90
2022-09-11T00:07:35.212Z,15.60
2022-09-11T00:12:38.423Z,14.10
2022-09-11T00:17:41.835Z,13.20
2022-09-11T00:22:45.350Z,12.90
2022-09-11T00:27:49.172Z,15.50
2022-09-11T00:32:52.482Z,14.50
2022-09-11T00:37:55.997Z,15.40
2022-09-11T00:42:59.513Z,13.70
2022-09-11T00:48:04.360Z,11.70
2022-09-11T00:53:10.312Z,12.20
2022-09-11T00:58:18.986Z,13.30
2022-09-11T01:03:23.828Z,11.30
2022-09-11T01:08:28.049Z,10.60
2022-09-11T01:19:16.557Z,10.90
2022-09-11T01:24:29.799Z,10.80
2022-09-11T01:29:55.838Z,9.50
2022-09-11T01:35:12.909Z,10.30
2022-09-11T01:40:41.584Z,12.20
2022-09-11T01:45:47.735Z,14.50
2022-09-11T01:50:53.541Z,13.30
2022-09-11T01:56:06.051Z,14.00
2022-09-11T02:01:36.602Z,13.00
2022-09-11T02:06:52.813Z,14.00
2022-09-11T02:11:58.480Z,15.00
2022-09-11T02:17:07.115Z,14.40
2022-09-11T02:22:10.527Z,13.00
2022-09-11T02:27:18.970Z,13.80
2022-09-11T02:32:23.294Z,11.30
2022-09-11T02:37:45.855Z,13.40
2022-09-11T02:43:13.946Z,10.30
2022-09-11T02:48:26.474Z,10.70
2022-09-11T02:53:35.519Z,12.00
2022-09-11T02:58:55.727Z,11.60
2022-09-11T03:03:59.651Z,9.90
2022-09-11T03:09:03.165Z,10.20
2022-09-11T03:14:06.580Z,8.50
2022-09-11T03:19:10.298Z,8.00
2022-09-11T03:24:14.737Z,8.50
2022-09-11T03:29:17.946Z,8.40
2022-09-11T03:34:21.358Z,7.90
2022-09-11T03:39:24.873Z,9.20
2022-09-11T03:44:28.185Z,8.90
2022-09-11T03:49:31.495Z,9.60
2022-09-11T03:54:35.830Z,8.50
2022-09-11T03:59:39.451Z,7.10
2022-09-11T04:04:42.964Z,8.00
2022-09-11T04:09:46.787Z,8.90
2022-09-11T04:14:50.711Z,8.20
2022-09-11T04:19:53.917Z,7.60
2022-09-11T04:24:57.945Z,7.70
2022-09-11T04:35:04.878Z,7.60
2022-09-11T04:40:10.279Z,7.80
2022-09-11T04:45:13.545Z,7.10
2022-09-11T04:50:16.856Z,7.70
2022-09-11T04:55:20.167Z,7.00
2022-09-11T05:00:23.479Z,8.00
2022-09-11T05:05:26.787Z,9.90
2022-09-11T05:10:30.410Z,6.70
2022-09-11T05:15:34.330Z,10.30
2022-09-11T05:20:38.157Z,6.60
2022-09-11T05:25:41.463Z,6.60
2022-09-11T05:30:45.286Z,7.20
2022-09-11T05:35:48.596Z,7.60
2022-09-11T05:40:52.522Z,6.20
2022-09-11T05:45:57.456Z,8.80
2022-09-11T05:51:04.165Z,6.50
2022-09-11T05:56:16.069Z,5.80
2022-09-11T06:01:24.143Z,6.20
2022-09-11T06:06:27.820Z,7.50
2022-09-11T06:11:32.357Z,4.70
2022-09-11T06:16:36.120Z,7.20
2022-09-11T06:21:39.495Z,5.20
2022-09-11T06:26:46.894Z,7.50
2022-09-11T06:31:51.640Z,5.60
2022-09-11T06:36:56.075Z,5.30
2022-09-11T06:42:00.412Z,5.50
2022-09-11T06:47:04.245Z,6.40
2022-09-11T06:52:07.446Z,4.70
2022-09-11T06:57:10.855Z,4.70
2022-09-11T07:02:16.579Z,4.10
2022-09-11T07:07:19.934Z,3.70
2022-09-11T07:12:24.276Z,6.40
2022-09-11T07:17:27.476Z,4.20
2022-09-11T07:22:35.292Z,5.00
2022-09-11T07:27:38.706Z,4.20
2022-09-11T07:32:42.017Z,3.90
2022-09-11T07:37:50.201Z,2.70
2022-09-11T07:42:54.281Z,3.40
2022-09-11T07:47:57.990Z,3.30
2022-09-11T07:53:01.303Z,2.50
2022-09-11T07:58:04.508Z,3.30
2022-09-11T08:03:08.023Z,2.80
2022-09-11T08:08:11.295Z,3.30
2022-09-11T08:13:14.562Z,2.30
2022-09-11T08:18:17.955Z,3.30
2022-09-11T08:23:24.442Z,3.00
2022-09-11T08:28:27.854Z,3.40
2022-09-11T08:33:33.525Z,3.00
2022-09-11T08:38:39.900Z,2.00
2022-09-11T08:43:54.479Z,2.20
2022-09-11T08:49:02.500Z,4.30
2022-09-11T08:54:07.549Z,1.50
2022-09-11T08:59:19.770Z,3.00
2022-09-11T09:05:05.783Z,3.40
2022-09-11T09:10:32.232Z,2.40
2022-09-11T09:15:38.654Z,1.50
2022-09-11T09:21:01.290Z,2.10
2022-09-11T09:26:04.489Z,1.90
2022-09-11T09:31:11.040Z,2.10
2022-09-11T09:36:14.491Z,1.20
2022-09-11T09:41:23.638Z,2.10
2022-09-11T09:46:47.482Z,1.70
2022-09-11T09:52:04.515Z,2.20
2022-09-11T09:57:11.906Z,2.10
2022-09-11T10:02:37.967Z,2.60
2022-09-11T10:08:11.738Z,2.10
2022-09-11T10:13:25.183Z,2.30
2022-09-11T10:18:43.026Z,1.40
2022-09-11T10:23:51.878Z,2.80
2022-09-11T10:28:59.898Z,1.70
2022-09-11T10:34:05.364Z,1.90
2022-09-11T10:39:19.525Z,1.10
2022-09-11T10:44:23.348Z,2.00
2022-09-11T10:54:38.468Z,2.30
2022-09-11T11:00:16.088Z,1.10
2022-09-11T11:05:30.662Z,1.50
2022-09-11T11:10:51.513Z,2.50
2022-09-11T11:16:12.759Z,3.70
2022-09-11T11:21:39.882Z,1.30
2022-09-11T11:27:22.616Z,2.50
2022-09-11T11:33:03.714Z,1.60
2022-09-11T11:38:28.323Z,0.90
2022-09-11T11:43:39.108Z,1.40
2022-09-11T11:48:51.430Z,3.40
2022-09-11T11:53:59.351Z,3.20
2022-09-11T11:59:27.441Z,1.10
2022-09-11T12:04:33.517Z,1.90
2022-09-11T12:24:03.034Z,1.70
2022-09-11T12:29:12.590Z,2.00
2022-09-11T12:34:24.878Z,1.50
2022-09-11T12:39:53.504Z,1.40
2022-09-11T12:44:59.855Z,1.80
2022-09-11T12:50:10.700Z,2.30
2022-09-11T12:55:50.656Z,1.30
2022-09-11T13:01:08.966Z,1.30
2022-09-11T13:06:13.891Z,1.40
2022-09-11T13:11:45.031Z,1.40
2022-09-11T13:16:49.265Z,1.40
2022-09-11T13:21:53.597Z,3.20
2022-09-11T13:27:08.669Z,1.00
2022-09-11T13:32:17.012Z,1.60
2022-09-11T13:37:49.099Z,3.50
2022-09-11T13:42:53.329Z,3.10
2022-09-11T13:47:58.211Z,3.00
2022-09-11T13:53:01.795Z,2.30
2022-09-11T13:58:23.782Z,2.50
2022-09-11T14:03:31.764Z,2.40
2022-09-11T14:08:36.608Z,2.10
2022-09-11T14:14:06.954Z,2.50
2022-09-11T14:19:21.838Z,1.60
2022-09-11T14:24:38.768Z,1.50
2022-09-11T14:29:53.324Z,3.10
2022-09-11T14:34:56.550Z,2.50
2022-09-11T14:40:21.467Z,1.90
2022-09-11T14:45:26.361Z,2.30
2022-09-11T14:50:31.263Z,2.30
2022-09-11T14:55:34.891Z,1.60
2022-09-11T15:00:38.294Z,2.10
2022-09-11T15:05:45.232Z,1.50
2022-09-11T15:10:49.318Z,1.40
2022-09-11T15:15:52.470Z,2.30
2022-09-11T15:20:56.041Z,1.60
2022-09-11T15:26:02.685Z,1.20
2022-09-11T15:31:06.326Z,1.10
2022-09-11T15:36:10.071Z,4.00
2022-09-11T15:41:13.280Z,2.40
2022-09-11T15:46:19.331Z,2.60
2022-09-11T15:51:25.960Z,1.20
2022-09-11T15:56:30.174Z,1.70
2022-09-11T16:01:35.695Z,1.60
2022-09-11T16:06:42.393Z,1.40
2022-09-11T16:11:48.114Z,1.60
2022-09-11T16:16:52.753Z,2.30
2022-09-11T16:21:58.095Z,1.60
2022-09-11T16:27:02.018Z,1.40
2022-09-11T16:32:06.687Z,1.20
2022-09-11T16:37:11.303Z,2.10
2022-09-11T16:42:14.933Z,1.60
2022-09-11T16:47:18.538Z,4.00
2022-09-11T16:52:21.849Z,1.90
2022-09-11T16:57:27.594Z,1.40
2022-09-11T17:02:30.929Z,4.60
2022-09-11T17:07:35.982Z,5.30
2022-09-11T17:12:39.394Z,5.90
2022-09-11T17:17:43.827Z,4.60
2022-09-11T17:22:47.147Z,4.60
2022-09-11T17:27:50.962Z,9.00
2022-09-11T17:32:54.290Z,5.40
2022-09-11T17:38:01.410Z,3.50
2022-09-11T17:43:05.400Z,4.60
2022-09-11T17:53:12.432Z,3.70
2022-09-11T17:58:16.765Z,3.00
2022-09-11T18:03:22.947Z,1.70
2022-09-11T18:08:27.073Z,2.40
2022-09-11T18:18:35.844Z,2.10
2022-09-11T18:23:42.639Z,5.70
2022-09-11T18:28:47.178Z,6.30
2022-09-11T18:33:55.455Z,4.40
2022-09-11T18:39:04.358Z,6.20
2022-09-11T18:44:18.818Z,4.80
2022-09-11T18:49:24.793Z,2.70
2022-09-11T18:54:30.188Z,2.20
2022-09-11T18:59:34.380Z,2.50
2022-09-11T19:04:38.005Z,3.20
2022-09-11T19:09:45.706Z,2.80
2022-09-11T19:14:49.434Z,3.90
2022-09-11T19:19:54.595Z,2.70
2022-09-11T19:24:59.789Z,2.30
2022-09-11T19:30:06.582Z,3.50
2022-09-11T19:35:10.972Z,2.00
2022-09-11T19:40:14.427Z,5.00
2022-09-11T19:45:17.934Z,2.90
2022-09-11T19:50:23.872Z,3.60
2022-09-11T19:55:28.309Z,2.00
2022-09-11T20:00:31.656Z,2.50
2022-09-11T20:05:34.934Z,2.50
2022-09-11T20:10:40.949Z,3.10
2022-09-11T20:15:45.752Z,2.60
2022-09-11T20:20:51.929Z,2.20
2022-09-11T20:25:55.343Z,2.30
2022-09-11T20:31:00.409Z,3.20
2022-09-11T20:36:04.013Z,4.00
2022-09-11T20:41:08.552Z,5.30
2022-09-11T20:46:11.893Z,2.30
2022-09-11T20:51:49.067Z,2.60
2022-09-11T20:56:52.275Z,3.10
2022-09-11T21:01:55.615Z,2.70
2022-09-11T21:07:00.585Z,2.60
2022-09-11T21:12:04.363Z,3.10
2022-09-11T21:17:07.669Z,2.50
2022-09-11T21:22:11.291Z,2.50
2022-09-11T21:27:14.805Z,2.90
2022-09-11T21:32:18.216Z,6.30
2022-09-11T21:37:21.935Z,2.60
2022-09-11T21:42:25.254Z,2.60
2022-09-11T21:47:28.456Z,2.90
2022-09-11T21:52:31.971Z,3.10
2022-09-11T21:57:35.281Z,2.60
2022-09-11T22:02:38.901Z,1.70
2022-09-11T22:07:42.827Z,2.50
2022-09-11T22:12:46.237Z,3.20
2022-09-11T22:17:49.652Z,3.90
2022-09-11T22:22:56.649Z,2.50
2022-09-11T22:28:00.163Z,2.00
2022-09-11T22:33:03.472Z,2.50
2022-09-11T22:38:06.684Z,5.30
2022-09-11T22:43:10.503Z,3.70
2022-09-11T22:48:13.764Z,3.50
2022-09-11T22:53:17.333Z,2.50
2022-09-11T22:58:21.448Z,3.90
2022-09-11T23:08:38.427Z,3.50
2022-09-11T23:18:46.610Z,3.90
2022-09-11T23:23:54.980Z,2.90
2022-09-11T23:28:58.734Z,2.40
2022-09-11T23:34:05.080Z,2.20
2022-09-11T23:39:08.559Z,2.40
2022-09-11T23:44:12.256Z,2.80
2022-09-11T23:49:16.379Z,3.20
2022-09-11T23:54:19.894Z,4.60
2022-09-11T23:59:23.102Z,2.80
